Time;durP1;ratioP1;P1;durP2;ratioP2;P2;SDS_P1;SDS_P2;PMS_P1;PMS_P2;Temp;Humidity;BMP_temperature;BMP_pressure;BME280_temperature;BME280_humidity;BME280_pressure;Samples;Min_cycle;Max_cycle;Signal;HPM_P1;HPM_P2
2022/05/29 00:01:14;;;;;;;5.45;2.83;;;8.60;95.30;;;;;;4998746;28;20113;-79
2022/05/29 00:03:40;;;;;;;3.45;2.45;;;8.60;95.40;;;;;;4981792;28;20018;-78
2022/05/29 00:06:06;;;;;;;8.27;3.40;;;8.60;95.50;;;;;;4993305;28;20042;-78
2022/05/29 00:08:36;;;;;;;6.95;3.17;;;8.60;95.50;;;;;;5006834;28;20026;-79
2022/05/29 00:11:03;;;;;;;5.40;2.75;;;8.60;95.70;;;;;;4994374;28;20035;-79
2022/05/29 00:13:29;;;;;;;7.00;3.15;;;8.50;95.70;;;;;;4994248;28;20105;-79
2022/05/29 00:15:55;;;;;;;9.75;3.05;;;8.50;95.70;;;;;;4994656;28;20428;-77
2022/05/29 00:18:20;;;;;;;4.97;3.20;;;8.50;95.80;;;;;;4995526;28;20024;-79
2022/05/29 00:20:50;;;;;;;5.65;2.70;;;8.50;95.70;;;;;;4993040;28;20503;-79
2022/05/29 00:23:16;;;;;;;5.78;2.60;;;8.60;95.70;;;;;;5000634;28;20105;-79
2022/05/29 00:25:45;;;;;;;3.28;2.20;;;8.50;95.70;;;;;;5007947;28;20484;-78
2022/05/29 00:28:11;;;;;;;3.85;2.42;;;8.50;95.70;;;;;;5000321;28;20511;-78
2022/05/29 00:30:36;;;;;;;4.68;3.10;;;8.60;95.60;;;;;;4994732;28;20085;-80
2022/05/29 00:33:02;;;;;;;3.97;2.50;;;8.60;95.60;;;;;;4997032;28;20030;-77
2022/05/29 00:35:28;;;;;;;4.38;2.55;;;8.50;95.90;;;;;;5013818;28;20045;-80
2022/05/29 00:37:54;;;;;;;6.95;2.65;;;8.50;95.60;;;;;;4999680;28;20018;-78
2022/05/29 00:40:54;;;;;;;9.27;3.08;;;8.50;95.70;;;;;;5005849;28;20010;-79
2022/05/29 00:43:19;;;;;;;8.00;2.40;;;8.50;95.70;;;;;;4992650;28;20039;-79
2022/05/29 00:45:54;;;;;;;3.63;2.70;;;8.50;95.80;;;;;;4999278;28;20030;-79
2022/05/29 00:48:20;;;;;;;7.90;3.28;;;8.60;95.80;;;;;;4999420;28;20026;-80
2022/05/29 00:50:49;;;;;;;7.22;2.78;;;8.50;95.80;;;;;;4994762;28;20039;-79
2022/05/29 00:53:15;;;;;;;4.15;2.75;;;8.60;95.90;;;;;;4982185;28;20030;-79
2022/05/29 00:55:46;;;;;;;7.53;3.00;;;8.60;96.00;;;;;;5002231;28;20034;-80
2022/05/29 00:58:12;;;;;;;5.07;2.80;;;8.70;96.00;;;;;;4999003;28;20637;-80
2022/05/29 01:00:38;;;;;;;7.70;2.83;;;8.70;96.00;;;;;;5003455;28;20034;-79
2022/05/29 01:03:05;;;;;;;5.68;3.53;;;8.80;95.90;;;;;;4981376;28;20061;-80
2022/05/29 01:05:33;;;;;;;10.43;2.78;;;8.90;95.80;;;;;;4987015;28;20037;-80
2022/05/29 01:08:03;;;;;;;5.88;2.90;;;9.00;96.00;;;;;;5006419;28;20096;-80
2022/05/29 01:10:45;;;;;;;5.53;2.05;;;9.00;95.60;;;;;;4993365;28;20030;-79
2022/05/29 01:13:32;;;;;;;7.55;2.95;;;9.10;95.50;;;;;;4994909;28;20018;-80
2022/05/29 01:16:32;;;;;;;8.32;2.60;;;9.20;95.30;;;;;;4993480;28;20471;-80
2022/05/29 01:19:20;;;;;;;6.55;2.78;;;9.30;95.10;;;;;;4993837;28;20108;-79
2022/05/29 01:22:00;;;;;;;;;;;9.30;94.90;;;;;;4996376;28;20018;-79
2022/05/29 01:24:45;;;;;;;6.88;2.75;;;9.40;94.80;;;;;;4975280;28;20363;-80
2022/05/29 01:27:48;;;;;;;4.88;2.65;;;9.30;94.60;;;;;;4995360;28;20098;-79
2022/05/29 01:30:14;;;;;;;5.53;2.70;;;9.30;94.60;;;;;;4995010;28;20029;-80
2022/05/29 01:32:58;;;;;;;4.88;2.55;;;9.30;94.60;;;;;;5015028;28;20022;-80
2022/05/29 01:35:36;;;;;;;5.95;3.35;;;9.20;94.70;;;;;;5018254;28;20124;-80
2022/05/29 01:38:07;;;;;;;;;;;9.20;94.80;;;;;;4992038;28;20122;-78
2022/05/29 01:40:36;;;;;;;6.35;2.40;;;9.10;94.70;;;;;;5015526;28;19929;-79
2022/05/29 01:43:24;;;;;;;5.82;3.10;;;9.10;95.00;;;;;;4996395;28;20100;-81
2022/05/29 01:45:55;;;;;;;;;;;9.20;95.20;;;;;;4997176;28;20531;-82
2022/05/29 01:48:47;;;;;;;8.02;4.00;;;9.20;94.90;;;;;;4997765;28;20388;-82
2022/05/29 01:51:22;;;;;;;7.40;2.85;;;9.10;95.00;;;;;;5006221;28;20035;-81
2022/05/29 01:54:14;;;;;;;7.22;3.80;;;9.00;95.10;;;;;;4997339;28;20108;-80
2022/05/29 01:56:47;;;;;;;12.07;3.85;;;9.00;95.20;;;;;;4997211;28;20490;-81
2022/05/29 01:59:57;;;;;;;7.00;3.50;;;8.90;95.30;;;;;;5013218;28;20391;-80
2022/05/29 02:02:30;;;;;;;5.20;3.50;;;8.90;95.40;;;;;;5013336;28;20022;-81
2022/05/29 02:05:01;;;;;;;4.10;3.30;;;8.80;95.40;;;;;;5004172;28;20022;-81
2022/05/29 02:10:35;;;;;;;6.13;3.38;;;8.80;95.50;;;;;;4996325;28;20514;-81
2022/05/29 02:13:03;;;;;;;;;;;8.80;95.70;;;;;;4995963;28;20027;-81
2022/05/29 02:15:39;;;;;;;6.60;2.38;;;8.80;95.50;;;;;;4996913;28;19910;-80
2022/05/29 02:18:13;;;;;;;6.40;2.90;;;8.70;95.70;;;;;;4992253;28;20030;-81
2022/05/29 02:20:45;;;;;;;5.22;3.05;;;8.80;95.90;;;;;;4992804;28;20053;-81
2022/05/29 02:23:34;;;;;;;6.47;3.25;;;8.80;95.90;;;;;;5003471;28;20021;-82
2022/05/29 02:26:03;;;;;;;6.93;3.25;;;8.90;96.00;;;;;;5005899;28;20070;-81
2022/05/29 02:28:36;;;;;;;5.50;2.75;;;8.90;96.00;;;;;;4998165;28;20023;-79
2022/05/29 02:31:21;;;;;;;6.30;3.00;;;9.00;96.00;;;;;;5009740;28;20034;-82
2022/05/29 02:34:49;;;;;;;5.18;2.13;;;9.10;95.80;;;;;;5006437;28;20037;-79
2022/05/29 02:37:39;;;;;;;3.22;1.88;;;9.20;95.70;;;;;;4935587;28;20063;-83
2022/05/29 02:40:17;;;;;;;5.45;2.53;;;9.20;95.40;;;;;;4997791;28;20022;-82
2022/05/29 02:43:25;;;;;;;3.97;1.98;;;9.20;95.50;;;;;;4989854;28;20062;-81
2022/05/29 02:46:03;;;;;;;5.40;2.60;;;9.30;95.40;;;;;;4988034;28;20043;-81
2022/05/29 02:48:53;;;;;;;4.63;2.45;;;9.30;95.40;;;;;;4996895;28;20023;-82
2022/05/29 02:51:24;;;;;;;7.57;2.45;;;9.40;95.50;;;;;;4995152;28;20166;-81
2022/05/29 02:53:50;;;;;;;4.32;2.10;;;9.50;95.40;;;;;;5005899;28;20022;-81
2022/05/29 02:56:16;;;;;;;3.40;2.22;;;9.70;95.20;;;;;;4998685;28;20548;-80
2022/05/29 02:58:46;;;;;;;4.07;2.20;;;9.80;94.90;;;;;;4999381;28;20358;-79
2022/05/29 03:01:18;;;;;;;3.47;2.20;;;10.10;94.60;;;;;;4997633;28;20373;-81
2022/05/29 03:04:17;;;;;;;5.03;2.10;;;10.40;94.10;;;;;;4957236;28;20122;-81
2022/05/29 03:07:13;;;;;;;6.88;2.00;;;10.70;93.50;;;;;;4941376;28;20034;-81
2022/05/29 03:10:09;;;;;;;3.53;2.03;;;10.80;92.90;;;;;;4964614;28;20493;-80
2022/05/29 03:13:02;;;;;;;3.72;1.73;;;10.70;92.60;;;;;;4957899;28;20122;-81
2022/05/29 03:15:40;;;;;;;5.80;2.10;;;10.80;92.60;;;;;;4959814;28;20102;-81
2022/05/29 03:18:15;;;;;;;5.25;2.45;;;10.70;92.60;;;;;;4964842;28;20035;-82
2022/05/29 03:21:02;;;;;;;5.20;1.92;;;10.70;92.70;;;;;;4963282;28;20031;-79
2022/05/29 03:23:51;;;;;;;4.15;2.65;;;10.70;92.70;;;;;;4962615;28;20053;-81
2022/05/29 03:26:28;;;;;;;5.25;2.10;;;10.70;92.60;;;;;;4972972;28;20818;-80
2022/05/29 03:29:10;;;;;;;2.92;2.05;;;10.70;92.50;;;;;;4959961;28;20042;-81
2022/05/29 03:31:38;;;;;;;5.82;2.00;;;10.80;93.10;;;;;;4965572;28;20053;-81
2022/05/29 03:34:03;;;;;;;;;;;11.20;92.60;;;;;;4970988;28;20113;-80
2022/05/29 03:36:30;;;;;;;3.30;1.65;;;11.50;92.40;;;;;;5001502;28;20416;-79
2022/05/29 03:38:56;;;;;;;2.88;1.75;;;11.50;91.40;;;;;;4988250;28;20443;-79
2022/05/29 03:41:35;;;;;;;2.65;1.70;;;11.50;91.20;;;;;;4996373;28;20082;-79
2022/05/29 03:44:01;;;;;;;5.78;1.85;;;11.60;91.30;;;;;;4961184;28;20035;-80
2022/05/29 03:46:26;;;;;;;4.30;2.00;;;11.70;91.10;;;;;;4971760;28;20161;-80
2022/05/29 03:48:52;;;;;;;7.18;2.22;;;11.70;90.80;;;;;;4971755;28;20086;-80
2022/05/29 03:51:19;;;;;;;4.38;1.85;;;11.70;90.50;;;;;;4943613;28;20073;-79
2022/05/29 03:53:45;;;;;;;2.90;2.28;;;11.70;90.60;;;;;;4972104;28;20039;-80
2022/05/29 03:56:11;;;;;;;6.80;1.92;;;11.80;90.70;;;;;;4971919;28;20114;-80
2022/05/29 03:58:37;;;;;;;1.95;1.58;;;11.90;90.50;;;;;;4971599;28;20039;-79
2022/05/29 04:01:02;;;;;;;2.70;1.73;;;12.00;90.30;;;;;;4963868;28;20035;-80
2022/05/29 04:03:30;;;;;;;4.70;1.70;;;12.00;90.00;;;;;;4969080;28;20035;-80
2022/05/29 04:05:55;;;;;;;4.00;1.42;;;12.10;89.60;;;;;;4971354;28;20534;-79
2022/05/29 04:13:50;;;;;;;2.25;1.58;;;11.50;90.10;;;;;;4966955;28;20539;-81
2022/05/29 04:16:16;;;;;;;2.65;1.80;;;11.60;90.20;;;;;;4986687;28;20478;-80
2022/05/29 04:18:42;;;;;;;2.92;1.25;;;11.60;89.50;;;;;;5003788;28;20022;-81
2022/05/29 04:21:09;;;;;;;7.40;1.73;;;11.40;89.10;;;;;;4998944;28;20030;-81
2022/05/29 04:23:34;;;;;;;2.70;1.05;;;11.20;90.10;;;;;;5019309;28;20022;-80
2022/05/29 04:26:00;;;;;;;4.47;2.58;;;11.10;90.20;;;;;;5011042;28;20049;-82
2022/05/29 04:28:26;;;;;;;2.38;1.30;;;11.10;90.50;;;;;;4998588;28;20041;-81
2022/05/29 04:30:51;;;;;;;2.40;1.15;;;11.10;90.40;;;;;;5012364;28;20044;-81
2022/05/29 04:33:17;;;;;;;6.72;1.80;;;11.10;90.70;;;;;;5002201;28;20439;-80
2022/05/29 04:35:51;;;;;;;3.13;1.42;;;11.00;90.90;;;;;;5005133;28;20052;-81
2022/05/29 04:38:19;;;;;;;2.83;1.20;;;11.00;91.40;;;;;;5002921;28;20018;-80
2022/05/29 04:40:45;;;;;;;3.83;1.70;;;10.80;91.70;;;;;;5002022;28;20357;-81
2022/05/29 04:43:12;;;;;;;1.92;1.27;;;10.50;92.40;;;;;;4993365;28;20038;-81
2022/05/29 04:45:40;;;;;;;1.48;1.23;;;10.30;93.00;;;;;;4993758;28;20032;-81
2022/05/29 04:48:06;;;;;;;4.20;1.50;;;10.20;93.70;;;;;;4995504;28;20033;-82
2022/05/29 04:50:32;;;;;;;2.38;1.63;;;10.10;94.00;;;;;;4989677;28;20030;-81
2022/05/29 04:52:58;;;;;;;3.90;1.60;;;9.80;94.70;;;;;;4995851;28;20034;-80
2022/05/29 04:55:24;;;;;;;2.20;1.75;;;9.70;95.50;;;;;;5000273;28;20101;-81
2022/05/29 04:57:49;;;;;;;1.85;1.25;;;9.60;96.30;;;;;;4995013;28;20045;-80
2022/05/29 05:00:16;;;;;;;3.67;2.03;;;9.50;96.40;;;;;;5000759;28;20018;-81
2022/05/29 05:02:42;;;;;;;2.80;1.83;;;9.40;97.10;;;;;;5010536;28;20061;-79
2022/05/29 05:05:09;;;;;;;4.07;1.80;;;9.50;97.80;;;;;;5004293;28;20030;-80
2022/05/29 05:07:35;;;;;;;4.93;2.00;;;9.50;98.00;;;;;;5008271;28;20078;-80
2022/05/29 05:10:06;;;;;;;4.28;1.98;;;9.60;98.10;;;;;;5009584;28;20022;-80
2022/05/29 05:12:31;;;;;;;3.10;1.40;;;9.60;98.30;;;;;;4995873;28;20031;-79
2022/05/29 05:14:57;;;;;;;3.50;1.70;;;9.50;98.50;;;;;;5017311;28;20049;-78
2022/05/29 05:17:23;;;;;;;2.35;1.48;;;9.60;98.80;;;;;;5003725;28;20022;-79
2022/05/29 05:19:49;;;;;;;3.70;1.63;;;9.70;98.90;;;;;;5000695;28;20029;-81
2022/05/29 05:22:14;;;;;;;4.15;1.80;;;9.70;98.70;;;;;;5002220;28;20108;-79
2022/05/29 05:24:40;;;;;;;3.50;2.08;;;9.80;99.00;;;;;;4997200;28;20026;-79
2022/05/29 05:27:08;;;;;;;2.22;1.80;;;9.80;99.10;;;;;;5001509;28;20061;-79
2022/05/29 05:29:33;;;;;;;;;;;10.00;99.30;;;;;;4996570;28;20038;-78
2022/05/29 05:31:59;;;;;;;5.22;2.13;;;10.10;98.80;;;;;;5000778;28;19936;-80
2022/05/29 05:34:27;;;;;;;3.45;2.00;;;10.20;99.10;;;;;;5002348;28;20038;-80
2022/05/29 05:36:53;;;;;;;1.63;1.52;;;10.30;99.10;;;;;;4983107;28;20373;-80
2022/05/29 05:39:25;;;;;;;5.15;2.00;;;10.40;98.80;;;;;;5005123;28;20084;-83
2022/05/29 05:41:50;;;;;;;5.20;1.60;;;10.50;98.40;;;;;;4978237;28;20033;-80
2022/05/29 05:44:16;;;;;;;4.65;1.50;;;10.70;98.20;;;;;;4996053;28;20555;-80
2022/05/29 05:46:47;;;;;;;3.08;1.63;;;10.90;98.10;;;;;;4996162;28;20023;-80
2022/05/29 05:49:13;;;;;;;3.95;1.70;;;11.40;97.40;;;;;;4996519;28;20026;-79
2022/05/29 05:51:39;;;;;;;2.15;1.42;;;11.90;96.60;;;;;;4996596;28;20045;-80
2022/05/29 05:54:04;;;;;;;2.70;1.30;;;12.30;94.80;;;;;;4996885;28;20089;-80
2022/05/29 05:56:30;;;;;;;2.15;1.35;;;12.80;94.60;;;;;;4997459;28;20031;-79
2022/05/29 05:58:56;;;;;;;3.30;1.40;;;13.10;92.70;;;;;;5010317;28;20049;-79
2022/05/29 06:01:22;;;;;;;2.20;1.33;;;13.20;92.00;;;;;;4997762;28;20041;-80
2022/05/29 06:03:47;;;;;;;3.05;1.25;;;14.70;91.60;;;;;;5000521;28;20111;-83
2022/05/29 06:06:13;;;;;;;2.22;1.30;;;17.20;85.70;;;;;;4998737;28;20026;-82
2022/05/29 06:08:39;;;;;;;2.50;1.23;;;19.50;75.70;;;;;;4999047;28;20029;-81
2022/05/29 06:11:05;;;;;;;1.65;1.25;;;21.40;65.50;;;;;;4999527;28;20030;-82
2022/05/29 06:13:31;;;;;;;2.35;1.38;;;23.20;62.30;;;;;;4984303;28;20041;-84
2022/05/29 06:16:02;;;;;;;1.90;1.13;;;24.50;56.20;;;;;;4999621;28;20023;-82
2022/05/29 06:18:27;;;;;;;1.90;0.95;;;24.60;52.30;;;;;;5004253;28;20032;-82
2022/05/29 06:21:04;;;;;;;2.10;1.00;;;23.40;51.90;;;;;;4995457;28;20380;-82
2022/05/29 06:23:30;;;;;;;3.53;1.10;;;21.90;55.10;;;;;;4997772;28;20563;-82
2022/05/29 06:26:00;;;;;;;3.93;2.63;;;20.60;57.10;;;;;;4982436;28;20027;-83
2022/05/29 06:28:25;;;;;;;3.33;1.42;;;19.10;59.80;;;;;;5003540;28;20023;-82
2022/05/29 06:30:51;;;;;;;1.75;1.00;;;17.80;64.10;;;;;;5011202;28;20030;-80
2022/05/29 06:33:17;;;;;;;2.17;1.30;;;16.60;67.50;;;;;;5003413;28;20094;-82
2022/05/29 06:35:43;;;;;;;3.13;1.20;;;15.50;70.50;;;;;;5008047;28;20097;-80
2022/05/29 06:38:08;;;;;;;3.08;1.13;;;14.90;72.20;;;;;;4998927;28;20022;-83
2022/05/29 06:40:34;;;;;;;1.30;0.65;;;14.20;75.80;;;;;;4998747;28;20439;-81
2022/05/29 06:43:01;;;;;;;4.07;1.63;;;13.80;75.50;;;;;;4995900;28;20026;-82
2022/05/29 06:45:27;;;;;;;5.53;2.22;;;13.60;78.20;;;;;;4999749;28;20042;-82
2022/05/29 06:47:53;;;;;;;2.50;0.68;;;13.80;78.30;;;;;;4998117;28;20050;-80
2022/05/29 06:50:19;;;;;;;7.68;1.15;;;14.00;77.40;;;;;;4997928;28;20022;-80
2022/05/29 06:52:44;;;;;;;3.38;0.80;;;14.10;75.50;;;;;;4996590;28;20460;-84
2022/05/29 06:55:10;;;;;;;1.38;0.88;;;14.30;74.90;;;;;;4999208;28;20103;-81
2022/05/29 06:57:36;;;;;;;1.20;0.82;;;14.40;74.30;;;;;;4997740;28;20031;-82
2022/05/29 07:08:18;;;;;;;1.98;0.98;;;14.80;73.10;;;;;;4998631;28;20033;-83
2022/05/29 07:10:44;;;;;;;3.15;1.30;;;15.30;72.30;;;;;;4993016;28;20047;-81
2022/05/29 07:13:11;;;;;;;1.90;1.08;;;15.90;70.90;;;;;;4994428;28;20402;-82
2022/05/29 07:15:37;;;;;;;3.03;1.17;;;16.40;70.80;;;;;;5000568;28;20045;-81
2022/05/29 07:18:03;;;;;;;1.65;1.00;;;16.70;68.00;;;;;;5001533;28;20029;-82
2022/05/29 07:20:30;;;;;;;2.58;1.38;;;16.60;67.60;;;;;;5002026;28;20022;-82
2022/05/29 07:22:57;;;;;;;3.28;1.10;;;16.60;67.50;;;;;;4980643;28;20022;-82
2022/05/29 07:25:23;;;;;;;;;;;16.80;67.90;;;;;;5001116;28;20403;-82
2022/05/29 07:27:48;;;;;;;3.85;1.00;;;16.70;67.40;;;;;;4997793;28;19906;-83
2022/05/29 07:30:14;;;;;;;1.77;1.20;;;16.10;68.10;;;;;;5001779;28;20101;-80
2022/05/29 07:32:40;;;;;;;2.00;1.10;;;15.70;70.20;;;;;;5002055;28;20057;-81
2022/05/29 07:35:06;;;;;;;4.43;1.20;;;15.60;70.80;;;;;;4995612;28;20046;-81
2022/05/29 07:37:32;;;;;;;2.95;1.50;;;15.00;72.90;;;;;;4999729;28;20022;-81
2022/05/29 07:40:02;;;;;;;3.92;1.13;;;14.50;74.60;;;;;;4999164;28;20322;-81
2022/05/29 07:45:13;;;;;;;3.65;1.38;;;13.70;78.10;;;;;;5010313;28;20037;-80
2022/05/29 07:47:48;;;;;;;5.38;1.65;;;13.60;78.60;;;;;;5105417;27;20390;-79
2022/05/29 07:50:18;;;;;;;6.15;1.90;;;13.70;79.00;;;;;;5110540;28;20040;-81
2022/05/29 07:52:45;;;;;;;4.97;1.67;;;13.90;79.00;;;;;;5090903;28;20036;-83
2022/05/29 07:55:11;;;;;;;4.25;1.33;;;14.10;79.20;;;;;;5072151;28;20326;-82
2022/05/29 07:57:37;;;;;;;5.07;2.10;;;14.30;78.70;;;;;;5090377;28;20111;-80
2022/05/29 08:00:09;;;;;;;2.67;1.48;;;14.50;78.50;;;;;;5090398;28;20058;-82
2022/05/29 08:02:34;;;;;;;3.15;1.63;;;14.70;77.70;;;;;;5090002;28;20028;-80
2022/05/29 08:05:02;;;;;;;3.95;1.95;;;14.40;77.90;;;;;;5090316;28;20024;-81
2022/05/29 08:07:28;;;;;;;4.13;1.60;;;14.40;77.80;;;;;;5071657;28;20489;-81
2022/05/29 08:09:54;;;;;;;4.10;1.27;;;14.40;77.30;;;;;;5089973;28;20020;-83
2022/05/29 08:12:20;;;;;;;6.00;1.85;;;14.50;77.30;;;;;;5089310;28;20020;-81
2022/05/29 08:14:46;;;;;;;3.33;1.30;;;14.90;77.60;;;;;;5089204;28;20091;-82
2022/05/29 08:17:13;;;;;;;3.65;1.90;;;15.40;75.60;;;;;;5088669;28;20020;-80
2022/05/29 08:19:39;;;;;;;4.07;1.50;;;15.80;73.90;;;;;;5089629;28;20430;-81
2022/05/29 08:22:05;;;;;;;6.88;1.80;;;16.50;73.60;;;;;;5088625;28;20032;-80
2022/05/29 08:30:43;;;;;;;2.65;1.15;;;19.80;62.70;;;;;;5070728;28;20027;-81
2022/05/29 08:33:20;;;;;;;4.82;1.40;;;21.40;57.80;;;;;;5074491;28;20028;-79
2022/05/29 08:35:49;;;;;;;2.33;1.35;;;23.30;52.90;;;;;;5088166;28;20477;-79
2022/05/29 08:38:17;;;;;;;2.45;1.48;;;24.00;51.10;;;;;;5087755;28;20034;-78
2022/05/29 08:40:52;;;;;;;2.83;1.00;;;24.10;48.20;;;;;;5069378;28;21711;-79
2022/05/29 08:43:31;;;;;;;4.30;1.67;;;22.90;48.70;;;;;;5086237;28;20110;-80
2022/05/29 08:45:59;;;;;;;4.40;1.38;;;;;;;;;;5081161;28;20067;-79
2022/05/29 08:48:26;;;;;;;3.78;1.35;;;25.70;48.00;;;;;;5072372;28;20027;-81
2022/05/29 08:51:04;;;;;;;3.10;1.40;;;26.60;44.70;;;;;;5088317;28;20024;-77
2022/05/29 08:53:40;;;;;;;2.53;1.15;;;28.80;41.50;;;;;;5074366;28;20026;-77
2022/05/29 08:56:14;;;;;;;4.40;1.83;;;28.20;38.70;;;;;;5087743;28;20074;-78
2022/05/29 08:58:43;;;;;;;5.18;2.13;;;26.50;41.30;;;;;;5076658;28;20017;-78
2022/05/29 09:01:18;;;;;;;2.42;1.42;;;26.10;41.70;;;;;;5075080;28;20024;-78
2022/05/29 09:04:02;;;;;;;1.42;0.82;;;25.10;41.40;;;;;;5075404;28;20050;-80
2022/05/29 09:06:42;;;;;;;3.22;1.40;;;25.00;44.00;;;;;;5074394;28;20032;-78
2022/05/29 09:09:18;;;;;;;4.93;1.98;;;25.90;42.10;;;;;;5056300;28;20021;-77
2022/05/29 09:11:52;;;;;;;2.17;1.15;;;25.40;42.30;;;;;;5068809;28;20423;-79
2022/05/29 09:15:01;;;;;;;1.35;1.20;;;24.60;42.40;;;;;;5074048;28;20570;-79
2022/05/29 09:17:50;;;;;;;2.50;1.08;;;24.00;43.60;;;;;;5029586;28;20032;-78
2022/05/29 09:20:30;;;;;;;4.32;1.30;;;22.90;44.50;;;;;;5015071;28;20028;-79
2022/05/29 09:23:01;;;;;;;3.67;1.67;;;21.30;45.90;;;;;;5028354;28;20042;-79
2022/05/29 09:25:29;;;;;;;4.20;1.63;;;20.40;50.10;;;;;;5031084;28;20032;-80
2022/05/29 09:28:00;;;;;;;4.32;1.48;;;21.70;49.50;;;;;;5031201;28;20029;-78
2022/05/29 09:30:26;;;;;;;6.22;1.83;;;23.80;46.10;;;;;;5031591;28;20368;-80
2022/05/29 09:33:24;;;;;;;1.52;1.13;;;24.40;44.50;;;;;;5031562;28;20040;-79
2022/05/29 09:36:13;;;;;;;5.07;1.02;;;24.30;45.20;;;;;;5031481;28;20037;-79
2022/05/29 09:38:48;;;;;;;3.40;1.88;;;23.10;45.20;;;;;;5015294;28;20041;-78
2022/05/29 09:41:26;;;;;;;3.00;1.15;;;21.90;46.00;;;;;;5030703;28;20029;-77
2022/05/29 09:44:20;;;;;;;1.35;1.05;;;20.80;49.50;;;;;;5035052;28;20568;-78
2022/05/29 09:46:49;;;;;;;2.92;1.33;;;22.00;49.50;;;;;;5031400;28;20049;-81
2022/05/29 09:49:42;;;;;;;3.05;0.93;;;24.30;45.70;;;;;;5064019;28;20041;-79
2022/05/29 09:52:22;;;;;;;2.85;1.00;;;26.70;42.40;;;;;;5073292;28;20416;-78
2022/05/29 09:54:58;;;;;;;1.52;1.23;;;27.30;39.80;;;;;;5058147;28;20394;-76
2022/05/29 09:57:39;;;;;;;2.45;1.40;;;26.20;39.60;;;;;;5062643;28;20354;-81
2022/05/29 10:00:13;;;;;;;3.35;1.40;;;24.00;43.00;;;;;;5073507;28;20130;-79
2022/05/29 10:02:42;;;;;;;4.18;1.73;;;22.10;45.90;;;;;;5073364;28;20056;-79
2022/05/29 10:05:22;;;;;;;2.22;1.13;;;20.70;48.80;;;;;;5073389;28;20021;-79
2022/05/29 10:07:48;;;;;;;3.38;1.63;;;19.60;50.90;;;;;;5055608;28;20032;-82
2022/05/29 10:10:30;;;;;;;5.60;1.70;;;19.40;53.60;;;;;;5072838;28;20012;-80
2022/05/29 10:12:58;;;;;;;3.03;1.13;;;21.60;51.80;;;;;;5073455;28;20348;-78
2022/05/29 10:15:26;;;;;;;3.70;1.20;;;24.00;47.00;;;;;;5074597;28;20047;-79
2022/05/29 10:18:01;;;;;;;3.25;1.33;;;25.90;42.90;;;;;;5073948;28;20056;-78
2022/05/29 10:20:39;;;;;;;4.07;1.30;;;26.50;41.80;;;;;;5073597;28;20054;-81
2022/05/29 10:23:28;;;;;;;2.15;1.10;;;26.80;41.20;;;;;;5072792;28;20021;-81
2022/05/29 10:25:57;;;;;;;3.00;1.10;;;27.70;40.50;;;;;;5067212;28;20052;-77
2022/05/29 10:28:29;;;;;;;2.05;1.60;;;27.10;39.30;;;;;;5054275;28;20063;-78
2022/05/29 10:31:07;;;;;;;3.20;1.00;;;25.80;40.30;;;;;;5067744;28;20046;-78
2022/05/29 10:33:35;;;;;;;4.75;1.80;;;23.50;40.70;;;;;;5071539;28;20103;-77
2022/05/29 10:36:08;;;;;;;2.70;1.10;;;21.50;44.80;;;;;;5060578;28;20031;-78
2022/05/29 10:38:34;;;;;;;3.05;1.05;;;20.30;48.20;;;;;;5083248;28;20069;-79
2022/05/29 10:41:03;;;;;;;1.30;1.10;;;19.80;49.90;;;;;;5075471;28;20036;-83
2022/05/29 10:43:41;;;;;;;2.15;1.10;;;19.70;51.10;;;;;;5052736;28;20309;-86
2022/05/29 10:46:15;;;;;;;2.67;1.63;;;19.60;52.10;;;;;;5064852;28;20037;-84
2022/05/29 10:48:50;;;;;;;3.13;1.50;;;19.50;51.90;;;;;;5055777;28;20032;-85
2022/05/29 10:51:44;;;;;;;1.35;1.10;;;19.10;51.80;;;;;;5073508;28;20075;-85
2022/05/29 10:54:41;;;;;;;3.72;1.35;;;18.60;52.10;;;;;;5073625;28;20027;-85
2022/05/29 10:57:16;;;;;;;;;;;18.30;54.40;;;;;;5074813;28;20020;-88
2022/05/29 11:00:06;;;;;;;3.05;2.35;;;17.90;54.60;;;;;;5055545;28;19958;-86
2022/05/29 11:05:37;;;;;;;5.25;1.50;;;17.80;56.60;;;;;;5055419;28;20047;-83
2022/05/29 11:08:30;;;;;;;3.13;1.45;;;17.70;56.50;;;;;;5056530;28;20035;-87
2022/05/29 11:11:10;;;;;;;2.40;1.77;;;17.70;57.10;;;;;;5050977;28;20020;-84
2022/05/29 11:13:48;;;;;;;3.33;1.42;;;17.60;55.90;;;;;;5056757;28;20040;-81
2022/05/29 11:16:32;;;;;;;3.53;2.00;;;17.50;56.70;;;;;;5059767;28;20021;-84
2022/05/29 11:19:28;;;;;;;5.35;2.05;;;17.30;56.90;;;;;;5072829;28;20120;-85
2022/05/29 11:22:06;;;;;;;2.83;1.53;;;17.30;57.90;;;;;;5063479;28;20021;-82
2022/05/29 11:25:11;;;;;;;3.10;1.88;;;17.20;57.10;;;;;;5072020;28;20024;-83
2022/05/29 11:28:04;;;;;;;4.65;1.60;;;17.10;58.70;;;;;;5061906;28;20116;-82
2022/05/29 11:30:54;;;;;;;6.10;1.90;;;16.80;58.30;;;;;;5070246;28;20094;-85
2022/05/29 11:33:43;;;;;;;2.67;1.33;;;16.60;59.60;;;;;;5072286;28;20013;-83
2022/05/29 11:36:40;;;;;;;9.35;1.63;;;16.30;59.50;;;;;;5054369;28;20124;-82
2022/05/29 11:39:33;;;;;;;3.13;1.67;;;16.00;58.90;;;;;;5072965;28;20048;-84
2022/05/29 11:42:10;;;;;;;2.95;1.35;;;15.90;59.20;;;;;;5054760;28;20511;-82
2022/05/29 11:45:08;;;;;;;4.80;1.73;;;15.80;58.20;;;;;;5073318;28;20028;-82
2022/05/29 11:53:22;;;;;;;5.63;1.92;;;15.20;59.60;;;;;;5069288;28;20047;-82
2022/05/29 11:55:50;;;;;;;3.20;1.30;;;15.00;59.90;;;;;;5072053;28;20024;-82
2022/05/29 11:58:18;;;;;;;3.08;1.30;;;14.80;59.70;;;;;;5072437;28;20099;-85
2022/05/29 12:00:47;;;;;;;5.47;1.88;;;14.60;60.30;;;;;;5057907;28;20032;-81
2022/05/29 12:03:44;;;;;;;3.35;1.60;;;14.50;61.50;;;;;;5072455;28;20035;-83
2022/05/29 12:06:23;;;;;;;3.58;1.83;;;14.50;63.40;;;;;;5064607;28;20045;-81
2022/05/29 12:09:05;;;;;;;4.35;1.52;;;14.50;63.60;;;;;;5077903;28;20444;-82
2022/05/29 12:11:33;;;;;;;3.47;1.52;;;14.50;63.60;;;;;;5072417;28;20033;-82
2022/05/29 12:14:08;;;;;;;3.67;1.70;;;14.60;64.80;;;;;;5072475;28;20523;-85
2022/05/29 12:16:39;;;;;;;2.63;1.35;;;14.80;64.40;;;;;;5054551;28;20128;-84
2022/05/29 12:19:13;;;;;;;3.85;2.03;;;15.20;62.70;;;;;;5074087;28;20019;-82
2022/05/29 12:21:54;;;;;;;2.40;1.30;;;15.60;62.30;;;;;;5075880;28;20131;-84
2022/05/29 12:24:26;;;;;;;1.65;1.00;;;15.90;59.80;;;;;;5061217;28;20047;-83
2022/05/29 12:27:14;;;;;;;0.85;0.70;;;15.90;59.30;;;;;;5074783;28;20373;-85
2022/05/29 12:29:57;;;;;;;3.83;1.80;;;16.00;59.30;;;;;;5059776;28;20024;-85
2022/05/29 12:32:31;;;;;;;1.13;0.82;;;15.90;58.20;;;;;;5072113;28;20060;-82
2022/05/29 12:35:02;;;;;;;1.65;1.10;;;15.70;57.50;;;;;;5076031;28;20070;-83
2022/05/29 12:37:44;;;;;;;1.90;0.98;;;15.50;57.50;;;;;;5059657;28;20029;-82
2022/05/29 12:40:22;;;;;;;1.73;0.85;;;15.50;55.70;;;;;;5085585;28;20055;-82
2022/05/29 12:42:59;;;;;;;1.65;1.00;;;15.30;56.00;;;;;;5078647;28;20088;-83
2022/05/29 12:45:37;;;;;;;2.28;1.15;;;15.20;56.70;;;;;;5074898;28;20017;-83
2022/05/29 12:48:41;;;;;;;2.50;1.23;;;15.20;56.30;;;;;;5075425;28;20055;-84
2022/05/29 12:51:09;;;;;;;1.92;1.20;;;15.20;56.90;;;;;;5083241;28;20409;-86
2022/05/29 12:53:47;;;;;;;1.52;1.13;;;15.20;56.80;;;;;;5076981;28;20055;-87
2022/05/29 12:56:28;;;;;;;3.08;1.10;;;15.20;56.70;;;;;;5072421;28;20090;-86
2022/05/29 12:59:15;;;;;;;4.20;2.22;;;15.10;56.80;;;;;;5076750;28;20027;-82
2022/05/29 13:01:53;;;;;;;2.80;1.48;;;15.10;57.70;;;;;;5072261;28;20027;-81
2022/05/29 13:04:47;;;;;;;4.68;1.60;;;15.10;58.60;;;;;;5063777;28;20050;-81
2022/05/29 13:07:52;;;;;;;2.47;1.20;;;15.20;58.60;;;;;;5056872;28;20033;-82
2022/05/29 13:10:34;;;;;;;5.65;1.50;;;15.30;59.00;;;;;;5075591;28;20016;-88
2022/05/29 13:13:00;;;;;;;2.08;1.00;;;15.30;58.70;;;;;;5066353;28;20538;-84
2022/05/29 13:15:37;;;;;;;1.92;1.23;;;15.40;58.30;;;;;;5074091;28;20025;-85
2022/05/29 13:21:19;;;;;;;3.13;1.40;;;15.50;59.20;;;;;;5079682;28;20036;-87
2022/05/29 13:23:52;;;;;;;2.97;1.60;;;15.60;58.00;;;;;;5085836;28;20028;-90
2022/05/29 13:26:20;;;;;;;2.95;1.40;;;15.60;59.00;;;;;;5071362;28;20039;-85
2022/05/29 13:28:56;;;;;;;3.88;1.65;;;15.70;58.20;;;;;;5077878;28;20025;-87
2022/05/29 13:31:23;;;;;;;2.90;1.25;;;15.80;58.20;;;;;;5068481;28;20058;-86
2022/05/29 13:33:50;;;;;;;;;;;16.30;57.50;;;;;;5076516;28;20027;-87
2022/05/29 13:36:53;;;;;;;4.30;1.65;;;16.50;57.40;;;;;;5072106;28;20333;-89
2022/05/29 13:39:25;;;;;;;2.10;1.33;;;18.40;55.90;;;;;;5010242;28;20381;-87
2022/05/29 13:41:59;;;;;;;5.07;2.97;;;20.00;51.60;;;;;;5077503;28;20381;-86
2022/05/29 13:44:33;;;;;;;7.22;2.30;;;20.80;49.70;;;;;;5075247;28;20355;-87
2022/05/29 13:47:22;;;;;;;3.90;1.70;;;21.50;48.00;;;;;;5057201;28;20501;-85
2022/05/29 13:49:56;;;;;;;5.78;2.50;;;22.60;46.20;;;;;;5074482;28;20111;-83
2022/05/29 13:52:27;;;;;;;5.10;1.50;;;22.90;43.50;;;;;;5064898;28;20028;-82
2022/05/29 13:55:21;;;;;;;5.60;1.52;;;22.50;44.00;;;;;;5083514;28;20039;-80
2022/05/29 14:06:34;;;;;;;3.45;2.03;;;19.50;48.70;;;;;;5075355;28;20110;-83
2022/05/29 14:09:03;;;;;;;5.93;1.65;;;18.90;50.70;;;;;;5067681;28;20055;-84
2022/05/29 14:11:47;;;;;;;5.05;1.58;;;19.50;51.10;;;;;;5075588;28;20060;-84
2022/05/29 14:14:35;;;;;;;2.25;1.27;;;19.40;50.30;;;;;;5077953;28;20066;-85